sensor_id;sensor_type;location;lat;lon;timestamp;pressure;altitude;pressure_sealevel;temperature;humidity
50087;BME280;35967;50.718;7.050;2023-04-29T00:01:53;100498.31;;;14.27;85.19
50087;BME280;35967;50.718;7.050;2023-04-29T00:11:59;100503.94;;;14.16;85.92
50087;BME280;35967;50.718;7.050;2023-04-29T00:22:04;100508.94;;;14.20;86.18
50087;BME280;35967;50.718;7.050;2023-04-29T00:32:07;100522.03;;;14.38;85.32
50087;BME280;35967;50.718;7.050;2023-04-29T00:42:11;100536.44;;;14.01;86.51
50087;BME280;35967;50.718;7.050;2023-04-29T00:52:16;100543.56;;;13.72;86.47
50087;BME280;35967;50.718;7.050;2023-04-29T01:02:20;100552.78;;;13.79;83.78
50087;BME280;35967;50.718;7.050;2023-04-29T01:12:30;100553.56;;;13.81;81.22
50087;BME280;35967;50.718;7.050;2023-04-29T01:22:36;100563.00;;;13.82;81.04
50087;BME280;35967;50.718;7.050;2023-04-29T01:32:46;100579.16;;;13.65;81.68
50087;BME280;35967;50.718;7.050;2023-04-29T01:43:00;100585.50;;;13.56;81.40
50087;BME280;35967;50.718;7.050;2023-04-29T01:53:07;100582.28;;;13.50;80.73
50087;BME280;35967;50.718;7.050;2023-04-29T02:03:11;100592.75;;;13.70;79.70
50087;BME280;35967;50.718;7.050;2023-04-29T02:13:20;100594.75;;;13.37;79.38
50087;BME280;35967;50.718;7.050;2023-04-29T02:23:23;100604.22;;;13.13;81.29
50087;BME280;35967;50.718;7.050;2023-04-29T02:33:28;100606.38;;;13.00;82.73
50087;BME280;35967;50.718;7.050;2023-04-29T02:55:41;100616.19;;;12.88;85.76
50087;BME280;35967;50.718;7.050;2023-04-29T03:05:45;100618.47;;;12.71;86.41
50087;BME280;35967;50.718;7.050;2023-04-29T03:15:50;100618.25;;;12.78;86.57
50087;BME280;35967;50.718;7.050;2023-04-29T03:25:53;100623.88;;;12.90;85.82
50087;BME280;35967;50.718;7.050;2023-04-29T03:35:59;100614.91;;;12.75;85.91
50087;BME280;35967;50.718;7.050;2023-04-29T03:46:21;100627.19;;;12.95;85.67
50087;BME280;35967;50.718;7.050;2023-04-29T03:56:25;100625.50;;;12.94;85.34
50087;BME280;35967;50.718;7.050;2023-04-29T04:06:29;100639.34;;;12.91;86.72
50087;BME280;35967;50.718;7.050;2023-04-29T04:16:34;100653.13;;;12.63;89.43
50087;BME280;35967;50.718;7.050;2023-04-29T04:26:38;100655.22;;;12.52;92.22
50087;BME280;35967;50.718;7.050;2023-04-29T04:36:50;100674.50;;;12.39;92.63
50087;BME280;35967;50.718;7.050;2023-04-29T04:46:53;100691.31;;;12.24;94.86
50087;BME280;35967;50.718;7.050;2023-04-29T04:57:21;100704.59;;;12.10;96.20
50087;BME280;35967;50.718;7.050;2023-04-29T05:07:24;100725.28;;;12.08;96.74
50087;BME280;35967;50.718;7.050;2023-04-29T05:17:36;100742.31;;;12.14;96.87
50087;BME280;35967;50.718;7.050;2023-04-29T05:27:40;100751.28;;;11.66;98.67
50087;BME280;35967;50.718;7.050;2023-04-29T05:37:49;100762.03;;;11.82;98.43
50087;BME280;35967;50.718;7.050;2023-04-29T05:48:08;100783.44;;;11.87;98.74
50087;BME280;35967;50.718;7.050;2023-04-29T05:58:13;100787.59;;;11.93;99.50
50087;BME280;35967;50.718;7.050;2023-04-29T06:08:17;100811.97;;;11.81;98.79
50087;BME280;35967;50.718;7.050;2023-04-29T06:18:27;100825.34;;;11.59;98.97
50087;BME280;35967;50.718;7.050;2023-04-29T06:28:32;100837.31;;;11.63;98.60
50087;BME280;35967;50.718;7.050;2023-04-29T06:38:37;100850.03;;;11.70;98.14
50087;BME280;35967;50.718;7.050;2023-04-29T06:48:55;100867.28;;;11.67;98.22
50087;BME280;35967;50.718;7.050;2023-04-29T06:59:00;100879.44;;;11.62;98.21
50087;BME280;35967;50.718;7.050;2023-04-29T07:09:03;100897.53;;;11.61;98.16
50087;BME280;35967;50.718;7.050;2023-04-29T07:19:08;100899.84;;;11.72;97.35
50087;BME280;35967;50.718;7.050;2023-04-29T07:29:11;100917.81;;;11.76;96.97
50087;BME280;35967;50.718;7.050;2023-04-29T07:39:15;100922.19;;;11.73;96.49
50087;BME280;35967;50.718;7.050;2023-04-29T07:49:22;100929.63;;;11.85;95.67
50087;BME280;35967;50.718;7.050;2023-04-29T07:59:28;100934.63;;;11.93;95.46
50087;BME280;35967;50.718;7.050;2023-04-29T08:09:31;100955.38;;;11.87;95.46
50087;BME280;35967;50.718;7.050;2023-04-29T08:19:38;100953.56;;;11.92;95.27
50087;BME280;35967;50.718;7.050;2023-04-29T08:29:41;100966.81;;;12.14;95.73
50087;BME280;35967;50.718;7.050;2023-04-29T08:39:46;100982.31;;;12.14;95.25
50087;BME280;35967;50.718;7.050;2023-04-29T08:49:49;100982.31;;;12.14;92.52
50087;BME280;35967;50.718;7.050;2023-04-29T08:59:54;100980.16;;;12.33;91.98
50087;BME280;35967;50.718;7.050;2023-04-29T09:09:57;100991.22;;;12.01;92.65
50087;BME280;35967;50.718;7.050;2023-04-29T09:20:26;101012.91;;;11.90;92.46
50087;BME280;35967;50.718;7.050;2023-04-29T09:30:29;101010.97;;;12.02;92.35
50087;BME280;35967;50.718;7.050;2023-04-29T09:40:34;101020.72;;;11.87;91.28
50087;BME280;35967;50.718;7.050;2023-04-29T09:51:00;101026.06;;;12.20;90.22
50087;BME280;35967;50.718;7.050;2023-04-29T10:01:06;101033.81;;;12.20;88.35
50087;BME280;35967;50.718;7.050;2023-04-29T10:11:10;101039.94;;;12.52;86.40
50087;BME280;35967;50.718;7.050;2023-04-29T10:21:16;101051.06;;;12.54;85.90
50087;BME280;35967;50.718;7.050;2023-04-29T10:31:20;101055.50;;;12.49;85.47
50087;BME280;35967;50.718;7.050;2023-04-29T10:41:26;101059.06;;;12.45;85.67
50087;BME280;35967;50.718;7.050;2023-04-29T10:51:31;101057.06;;;13.24;86.81
50087;BME280;35967;50.718;7.050;2023-04-29T11:01:49;101070.66;;;12.63;84.24
50087;BME280;35967;50.718;7.050;2023-04-29T11:11:59;101078.94;;;12.41;84.63
50087;BME280;35967;50.718;7.050;2023-04-29T11:22:10;101084.78;;;12.48;84.63
50087;BME280;35967;50.718;7.050;2023-04-29T11:32:14;101083.16;;;12.44;85.32
50087;BME280;35967;50.718;7.050;2023-04-29T11:42:21;101101.38;;;12.38;85.31
50087;BME280;35967;50.718;7.050;2023-04-29T11:52:25;101103.19;;;12.33;86.12
50087;BME280;35967;50.718;7.050;2023-04-29T12:02:30;101103.09;;;12.37;85.96
50087;BME280;35967;50.718;7.050;2023-04-29T12:12:33;101116.06;;;12.36;87.24
50087;BME280;35967;50.718;7.050;2023-04-29T12:22:38;101105.47;;;12.46;87.94
50087;BME280;35967;50.718;7.050;2023-04-29T12:32:41;101110.84;;;12.37;88.45
50087;BME280;35967;50.718;7.050;2023-04-29T12:42:47;101115.38;;;12.27;88.75
50087;BME280;35967;50.718;7.050;2023-04-29T12:52:50;101129.13;;;12.28;89.55
50087;BME280;35967;50.718;7.050;2023-04-29T13:02:55;101128.81;;;12.42;88.69
50087;BME280;35967;50.718;7.050;2023-04-29T13:12:58;101135.16;;;12.28;89.82
50087;BME280;35967;50.718;7.050;2023-04-29T13:23:03;101142.75;;;12.35;90.20
50087;BME280;35967;50.718;7.050;2023-04-29T13:33:06;101136.84;;;12.29;90.46
50087;BME280;35967;50.718;7.050;2023-04-29T13:43:15;101146.09;;;12.77;89.94
50087;BME280;35967;50.718;7.050;2023-04-29T13:53:33;101154.25;;;12.59;88.67
50087;BME280;35967;50.718;7.050;2023-04-29T14:03:57;101152.25;;;12.72;88.64
50087;BME280;35967;50.718;7.050;2023-04-29T14:14:02;101151.25;;;12.77;88.66
50087;BME280;35967;50.718;7.050;2023-04-29T14:24:06;101146.16;;;13.10;87.50
50087;BME280;35967;50.718;7.050;2023-04-29T14:34:11;101152.06;;;13.16;86.65
50087;BME280;35967;50.718;7.050;2023-04-29T14:44:16;101161.72;;;13.07;85.79
50087;BME280;35967;50.718;7.050;2023-04-29T14:54:19;101162.75;;;13.36;86.08
50087;BME280;35967;50.718;7.050;2023-04-29T15:04:23;101173.63;;;13.51;84.62
50087;BME280;35967;50.718;7.050;2023-04-29T15:14:28;101177.31;;;13.40;83.42
50087;BME280;35967;50.718;7.050;2023-04-29T15:24:32;101179.50;;;13.57;83.35
50087;BME280;35967;50.718;7.050;2023-04-29T15:34:36;101181.56;;;13.45;83.54
50087;BME280;35967;50.718;7.050;2023-04-29T15:44:40;101181.50;;;13.46;83.09
50087;BME280;35967;50.718;7.050;2023-04-29T15:54:44;101190.25;;;13.40;83.89
50087;BME280;35967;50.718;7.050;2023-04-29T16:04:48;101193.81;;;13.35;83.71
50087;BME280;35967;50.718;7.050;2023-04-29T16:14:53;101190.06;;;13.48;83.98
50087;BME280;35967;50.718;7.050;2023-04-29T16:24:57;101187.66;;;13.40;83.06
50087;BME280;35967;50.718;7.050;2023-04-29T16:35:05;101193.31;;;13.55;82.85
50087;BME280;35967;50.718;7.050;2023-04-29T16:45:10;101188.03;;;13.61;82.60
50087;BME280;35967;50.718;7.050;2023-04-29T16:55:13;101191.28;;;13.68;82.59
50087;BME280;35967;50.718;7.050;2023-04-29T17:05:19;101199.13;;;13.65;81.79
50087;BME280;35967;50.718;7.050;2023-04-29T17:15:22;101203.44;;;13.66;81.74
50087;BME280;35967;50.718;7.050;2023-04-29T17:25:26;101196.56;;;13.63;81.68
50087;BME280;35967;50.718;7.050;2023-04-29T17:35:30;101194.88;;;13.62;81.57
50087;BME280;35967;50.718;7.050;2023-04-29T17:45:39;101205.25;;;13.61;81.86
50087;BME280;35967;50.718;7.050;2023-04-29T17:55:43;101219.09;;;13.60;82.36
50087;BME280;35967;50.718;7.050;2023-04-29T18:05:48;101219.25;;;13.53;83.85
50087;BME280;35967;50.718;7.050;2023-04-29T18:15:51;101221.06;;;13.50;84.22
50087;BME280;35967;50.718;7.050;2023-04-29T18:25:55;101209.75;;;13.54;84.26
50087;BME280;35967;50.718;7.050;2023-04-29T18:36:00;101211.69;;;13.46;84.22
50087;BME280;35967;50.718;7.050;2023-04-29T18:46:04;101224.78;;;13.38;84.99
50087;BME280;35967;50.718;7.050;2023-04-29T18:56:07;101233.84;;;13.20;85.53
50087;BME280;35967;50.718;7.050;2023-04-29T19:06:12;101232.38;;;13.08;84.91
50087;BME280;35967;50.718;7.050;2023-04-29T19:16:15;101239.38;;;13.03;84.42
50087;BME280;35967;50.718;7.050;2023-04-29T19:26:20;101260.19;;;12.97;84.14
50087;BME280;35967;50.718;7.050;2023-04-29T19:36:24;101264.59;;;12.93;85.17
50087;BME280;35967;50.718;7.050;2023-04-29T19:46:28;101258.78;;;12.83;85.15
50087;BME280;35967;50.718;7.050;2023-04-29T19:56:58;101269.06;;;12.85;86.25
50087;BME280;35967;50.718;7.050;2023-04-29T20:07:03;101264.00;;;12.80;86.05
50087;BME280;35967;50.718;7.050;2023-04-29T20:17:09;101273.69;;;12.70;86.59
50087;BME280;35967;50.718;7.050;2023-04-29T20:27:14;101281.63;;;12.61;86.62
50087;BME280;35967;50.718;7.050;2023-04-29T20:37:16;101283.38;;;12.60;86.20
50087;BME280;35967;50.718;7.050;2023-04-29T20:47:22;101290.34;;;12.55;86.25
50087;BME280;35967;50.718;7.050;2023-04-29T20:57:30;101298.28;;;12.46;85.55
50087;BME280;35967;50.718;7.050;2023-04-29T21:07:35;101295.69;;;12.46;86.48
50087;BME280;35967;50.718;7.050;2023-04-29T21:17:39;101302.78;;;12.36;87.48
50087;BME280;35967;50.718;7.050;2023-04-29T21:27:44;101297.59;;;12.38;87.94
50087;BME280;35967;50.718;7.050;2023-04-29T21:37:48;101299.25;;;12.40;87.30
50087;BME280;35967;50.718;7.050;2023-04-29T21:47:52;101304.53;;;12.34;88.01
50087;BME280;35967;50.718;7.050;2023-04-29T21:57:56;101310.16;;;12.08;88.99
50087;BME280;35967;50.718;7.050;2023-04-29T22:08:02;101323.66;;;12.22;88.64
50087;BME280;35967;50.718;7.050;2023-04-29T22:18:08;101326.28;;;12.21;88.41
50087;BME280;35967;50.718;7.050;2023-04-29T22:28:13;101334.13;;;12.16;89.23
50087;BME280;35967;50.718;7.050;2023-04-29T22:38:16;101335.09;;;12.09;90.46
50087;BME280;35967;50.718;7.050;2023-04-29T22:48:21;101335.25;;;12.01;91.01
50087;BME280;35967;50.718;7.050;2023-04-29T22:58:28;101341.38;;;11.92;91.53
50087;BME280;35967;50.718;7.050;2023-04-29T23:08:32;101341.25;;;12.02;91.03
50087;BME280;35967;50.718;7.050;2023-04-29T23:18:35;101347.16;;;12.08;89.61
50087;BME280;35967;50.718;7.050;2023-04-29T23:28:39;101342.97;;;12.03;90.06
50087;BME280;35967;50.718;7.050;2023-04-29T23:38:44;101355.00;;;12.02;89.59
50087;BME280;35967;50.718;7.050;2023-04-29T23:48:49;101347.47;;;11.88;88.64
50087;BME280;35967;50.718;7.050;2023-04-29T23:58:52;101354.56;;;11.74;88.89
